Rechercher aéroport 
image banner adimage banner ad
image banner ad

DAOI - Chlef

Situé à Chlef, Algeria

ICAO - DAOI, IATA - CFK

Données fournies par Airmate  

Information générale

Coordonnées: N36°13'1" E1°20'24"
Élévation : 501 feet MSL.
 
Voir autres Aéroports à Chlef Province

Données opérationnelles

Accessible au public
Heure actuelle UTC:
Heure actuelle locale:
Météo
METAR: DAOI 230600Z 05004KT CAVOK 20/09 Q1015
TAF: TAF DAOI 222300Z 2300/2324 VRB02KT CAVOK BECMG 2312/2314 22010KT BECMG 2318/2320 VRB02KT
Voir NOTAMs / SUP AIP / TFR affectant cet aéroport [VIEW]
Fréquences de communication: [VIEW]

Pistes:

Identifiant RWYQFULongueur (ft)Largeur (ft)SurfaceLDA (ft)
0877°9186148
26257°9186148
0769°541398ASP
25249°541398

Coordonnées de l'aéroport

Adresse: Chlef Algeria

Vue satellite de DAOI